Time;durP1;ratioP1;P1;durP2;ratioP2;P2;SDS_P1;SDS_P2;PMS_P1;PMS_P2;Temp;Humidity;BMP_temperature;BMP_pressure;BME280_temperature;BME280_humidity;BME280_pressure;Samples;Min_cycle;Max_cycle;Signal;HPM_P1;HPM_P2
2022/12/13 00:00:22;;;;;;;2.75;1.10;;;;;;;;;;5056189;28;20040;-83
2022/12/13 00:02:48;;;;;;;1.42;1.05;;;;;;;;;;5038046;28;20033;-84
2022/12/13 00:05:13;;;;;;;1.77;1.10;;;;;;;;;;5037952;28;20025;-84
2022/12/13 00:07:40;;;;;;;1.55;1.10;;;;;;;;;;5021090;28;20514;-83
2022/12/13 00:10:06;;;;;;;1.95;1.10;;;;;;;;;;5037500;28;20025;-83
2022/12/13 00:12:31;;;;;;;2.05;1.17;;;;;;;;;;5020329;28;20031;-84
2022/12/13 00:14:57;;;;;;;3.60;1.40;;;;;;;;;;5033222;28;20388;-83
2022/12/13 00:17:23;;;;;;;1.40;1.10;;;;;;;;;;5036473;28;20037;-83
2022/12/13 00:19:48;;;;;;;1.38;0.90;;;;;;;;;;5053987;28;20040;-83
2022/12/13 00:22:15;;;;;;;2.30;1.08;;;;;;;;;;5021745;28;20080;-83
2022/12/13 00:24:41;;;;;;;2.00;1.13;;;;;;;;;;5056350;28;20029;-84
2022/12/13 00:27:06;;;;;;;1.70;1.30;;;;;;;;;;5024915;28;20044;-84
2022/12/13 00:29:32;;;;;;;2.60;1.40;;;;;;;;;;5038717;28;20455;-83
2022/12/13 00:31:58;;;;;;;1.85;1.40;;;;;;;;;;5058701;28;20128;-83
2022/12/13 00:34:23;;;;;;;2.38;1.48;;;;;;;;;;5038698;28;20033;-84
2022/12/13 00:36:49;;;;;;;2.20;1.40;;;;;;;;;;5021378;28;20069;-84
2022/12/13 00:39:15;;;;;;;4.90;1.30;;;;;;;;;;5056683;28;20074;-84
2022/12/13 00:41:41;;;;;;;2.38;1.60;;;;;;;;;;5025791;28;20801;-84
2022/12/13 00:44:06;;;;;;;1.83;1.33;;;;;;;;;;5022816;28;20040;-84
2022/12/13 00:46:32;;;;;;;2.20;1.48;;;;;;;;;;5042522;28;20115;-82
2022/12/13 00:48:58;;;;;;;2.58;1.50;;;;;;;;;;5053057;28;20033;-83
2022/12/13 00:51:24;;;;;;;3.35;1.40;;;;;;;;;;5020068;28;20028;-83
2022/12/13 00:53:50;;;;;;;2.30;1.40;;;;;;;;;;5054632;28;20039;-83
2022/12/13 00:56:16;;;;;;;2.70;1.35;;;;;;;;;;5037044;28;20086;-83
2022/12/13 00:58:42;;;;;;;2.47;1.30;;;;;;;;;;5036748;28;20033;-84
2022/12/13 01:01:08;;;;;;;2.90;1.58;;;;;;;;;;5038023;28;20047;-84
2022/12/13 01:03:34;;;;;;;2.20;1.50;;;;;;;;;;5035785;28;20037;-83
2022/12/13 01:06:00;;;;;;;2.30;1.50;;;;;;;;;;5025126;28;20131;-83
2022/12/13 01:08:26;;;;;;;3.00;1.63;;;;;;;;;;5038445;28;20547;-84
2022/12/13 01:10:52;;;;;;;3.25;1.65;;;;;;;;;;5060713;28;20036;-83
2022/12/13 01:13:17;;;;;;;2.33;1.58;;;;;;;;;;5020481;28;20499;-83
2022/12/13 01:15:43;;;;;;;3.30;1.63;;;;;;;;;;5026930;28;20534;-84
2022/12/13 01:18:09;;;;;;;2.47;1.58;;;;;;;;;;5058606;28;20037;-84
2022/12/13 01:20:34;;;;;;;;;;;;;;;;;;5028722;28;20033;-84
2022/12/13 01:23:00;;;;;;;3.75;1.58;;;;;;;;;;5058776;28;19908;-84
2022/12/13 01:25:25;;;;;;;4.20;1.63;;;;;;;;;;5045375;28;20029;-83
2022/12/13 01:27:51;;;;;;;2.90;1.98;;;;;;;;;;5042367;28;20033;-84
2022/12/13 01:30:16;;;;;;;2.90;1.80;;;;;;;;;;5063170;28;20029;-83
2022/12/13 01:32:42;;;;;;;2.38;1.73;;;;;;;;;;5044657;28;20074;-84
2022/12/13 01:35:07;;;;;;;2.90;1.40;;;;;;;;;;5045793;28;20073;-83
2022/12/13 01:37:35;;;;;;;2.55;1.70;;;;;;;;;;5062125;28;20041;-83
2022/12/13 01:40:02;;;;;;;2.92;1.73;;;;;;;;;;5046392;28;20032;-83
2022/12/13 01:42:28;;;;;;;2.17;1.23;;;;;;;;;;5028857;28;20024;-83
2022/12/13 01:44:56;;;;;;;2.47;1.50;;;;;;;;;;5068412;28;20102;-84
2022/12/13 01:47:32;;;;;;;2.08;1.40;;;;;;;;;;5063304;28;20087;-83
2022/12/13 01:49:59;;;;;;;2.05;1.45;;;;;;;;;;5034701;28;20025;-82
2022/12/13 01:52:25;;;;;;;2.25;1.50;;;;;;;;;;5016081;28;20036;-83
2022/12/13 01:54:51;;;;;;;2.38;1.70;;;;;;;;;;5034462;28;20120;-83
2022/12/13 01:57:17;;;;;;;2.80;1.70;;;;;;;;;;5035711;28;20028;-82
2022/12/13 01:59:42;;;;;;;2.75;2.15;;;;;;;;;;5039561;28;20116;-83
2022/12/13 02:02:08;;;;;;;3.33;2.42;;;;;;;;;;5058497;28;20065;-83
2022/12/13 02:04:36;;;;;;;;;;;;;;;;;;5022867;28;20033;-83
2022/12/13 02:07:02;;;;;;;5.10;2.90;;;;;;;;;;5059115;28;19967;-83
2022/12/13 02:09:28;;;;;;;4.68;3.10;;;;;;;;;;5034554;28;20040;-83
2022/12/13 02:11:53;;;;;;;4.32;2.90;;;;;;;;;;5035175;28;20063;-83
2022/12/13 02:14:19;;;;;;;4.40;3.10;;;;;;;;;;5034794;28;20040;-83
2022/12/13 02:16:44;;;;;;;5.50;3.42;;;;;;;;;;5035389;28;20051;-82
2022/12/13 02:19:25;;;;;;;4.63;3.30;;;;;;;;;;5052673;28;20111;-83
2022/12/13 02:22:09;;;;;;;6.43;3.78;;;;;;;;;;5034744;28;20036;-83
2022/12/13 02:24:37;;;;;;;4.50;3.50;;;;;;;;;;5034569;28;20920;-83
2022/12/13 02:27:26;;;;;;;5.45;3.90;;;;;;;;;;5034788;28;20043;-82
2022/12/13 02:30:10;;;;;;;4.72;3.70;;;;;;;;;;5015714;28;20045;-84
2022/12/13 02:32:35;;;;;;;5.00;3.65;;;;;;;;;;5043961;28;20045;-83
2022/12/13 02:35:13;;;;;;;4.70;3.75;;;;;;;;;;5054469;28;20053;-83
2022/12/13 02:37:47;;;;;;;5.05;4.13;;;;;;;;;;5035442;28;20037;-84
2022/12/13 02:40:13;;;;;;;4.82;3.60;;;;;;;;;;5034642;28;20083;-84
2022/12/13 02:42:59;;;;;;;4.57;3.33;;;;;;;;;;5054250;28;20399;-84
2022/12/13 02:45:29;;;;;;;4.35;3.35;;;;;;;;;;5048765;28;20037;-85
2022/12/13 02:47:54;;;;;;;4.97;3.90;;;;;;;;;;5020249;28;20082;-83
2022/12/13 02:50:20;;;;;;;4.75;3.65;;;;;;;;;;5017588;28;20446;-84
2022/12/13 02:52:45;;;;;;;5.43;3.92;;;;;;;;;;5016957;28;20548;-84
2022/12/13 02:55:12;;;;;;;5.90;4.30;;;;;;;;;;5034000;28;20407;-84
2022/12/13 02:57:38;;;;;;;5.22;4.15;;;;;;;;;;5018572;28;20112;-84
2022/12/13 03:00:04;;;;;;;6.82;4.22;;;;;;;;;;5051890;28;20049;-84
2022/12/13 03:02:31;;;;;;;5.68;4.40;;;;;;;;;;5052195;28;20056;-83
2022/12/13 03:08:03;;;;;;;6.25;4.93;;;;;;;;;;5052716;28;19952;-83
2022/12/13 03:10:35;;;;;;;5.82;4.47;;;;;;;;;;5042281;28;20072;-83
2022/12/13 03:15:59;;;;;;;6.22;4.40;;;;;;;;;;5040367;28;20060;-83
2022/12/13 03:18:27;;;;;;;4.82;3.60;;;;;;;;;;5038254;28;20025;-83
2022/12/13 03:20:54;;;;;;;5.32;4.10;;;;;;;;;;5038603;28;20086;-83
2022/12/13 03:23:20;;;;;;;5.78;4.30;;;;;;;;;;5022645;28;20037;-83
2022/12/13 03:25:50;;;;;;;6.28;4.15;;;;;;;;;;5055970;28;20048;-83
2022/12/13 03:28:15;;;;;;;5.82;4.60;;;;;;;;;;5057556;28;20068;-83
2022/12/13 03:30:41;;;;;;;7.60;5.32;;;;;;;;;;5038932;28;20079;-84
2022/12/13 03:33:07;;;;;;;6.15;4.72;;;;;;;;;;5021476;28;20041;-84
2022/12/13 03:35:33;;;;;;;7.13;4.80;;;;;;;;;;5044586;28;20032;-83
2022/12/13 03:38:00;;;;;;;6.03;4.55;;;;;;;;;;5027778;28;20037;-84
2022/12/13 03:40:26;;;;;;;6.07;4.15;;;;;;;;;;5057374;28;20025;-83
2022/12/13 03:42:51;;;;;;;6.43;5.03;;;;;;;;;;5041041;28;20043;-84
2022/12/13 03:45:17;;;;;;;8.70;5.10;;;;;;;;;;5037316;28;20086;-84
2022/12/13 03:47:43;;;;;;;6.13;4.40;;;;;;;;;;5057211;28;20155;-83
2022/12/13 03:50:08;;;;;;;6.60;5.40;;;;;;;;;;5054696;28;20115;-83
2022/12/13 03:52:34;;;;;;;7.35;5.78;;;;;;;;;;5054421;28;20033;-83
2022/12/13 03:54:59;;;;;;;7.47;5.72;;;;;;;;;;5037169;28;20029;-82
2022/12/13 03:57:25;;;;;;;7.15;5.15;;;;;;;;;;5054897;28;20029;-84
2022/12/13 03:59:50;;;;;;;7.30;5.10;;;;;;;;;;5037148;28;20036;-83
2022/12/13 04:02:16;;;;;;;7.03;5.47;;;;;;;;;;5005305;28;20047;-83
2022/12/13 04:04:41;;;;;;;7.47;4.68;;;;;;;;;;5054096;28;20041;-83
2022/12/13 04:07:07;;;;;;;6.45;4.80;;;;;;;;;;5036412;28;20080;-83
2022/12/13 04:09:32;;;;;;;6.43;4.72;;;;;;;;;;5054386;28;20041;-83
2022/12/13 04:14:42;;;;;;;5.88;4.22;;;;;;;;;;5061418;28;20406;-85
2022/12/13 04:17:07;;;;;;;6.00;4.65;;;;;;;;;;5043036;28;20108;-84
2022/12/13 04:19:33;;;;;;;5.80;4.28;;;;;;;;;;5026231;28;20044;-84
2022/12/13 04:21:59;;;;;;;5.75;3.92;;;;;;;;;;5022861;28;20484;-83
2022/12/13 04:24:24;;;;;;;5.25;4.13;;;;;;;;;;5055033;28;20568;-83
2022/12/13 04:26:50;;;;;;;5.90;4.45;;;;;;;;;;5036974;28;20067;-84
2022/12/13 04:29:15;;;;;;;6.05;4.38;;;;;;;;;;5016036;28;20057;-84
2022/12/13 04:31:41;;;;;;;6.70;4.40;;;;;;;;;;5031225;28;20122;-83
2022/12/13 04:34:06;;;;;;;8.02;4.80;;;;;;;;;;5058770;28;20037;-83
2022/12/13 04:36:32;;;;;;;8.20;6.05;;;;;;;;;;5042884;28;20037;-84
2022/12/13 04:38:57;;;;;;;7.63;5.70;;;;;;;;;;5030743;28;20052;-83
2022/12/13 04:41:23;;;;;;;7.65;5.25;;;;;;;;;;5045412;28;20428;-85
2022/12/13 04:43:54;;;;;;;7.15;5.50;;;;;;;;;;5035447;28;20037;-83
2022/12/13 04:46:24;;;;;;;7.75;5.38;;;;;;;;;;5021097;28;20045;-83
2022/12/13 04:48:49;;;;;;;9.20;6.10;;;;;;;;;;5065908;28;20107;-84
2022/12/13 04:51:15;;;;;;;8.13;5.90;;;;;;;;;;5032414;28;20475;-82
2022/12/13 04:53:40;;;;;;;8.40;5.85;;;;;;;;;;5031772;28;20107;-83
2022/12/13 04:56:06;;;;;;;8.65;6.47;;;;;;;;;;5034756;28;20526;-82
2022/12/13 04:58:31;;;;;;;8.18;6.13;;;;;;;;;;5042689;28;20029;-83
2022/12/13 05:00:57;;;;;;;9.95;7.00;;;;;;;;;;5067460;28;20037;-80
2022/12/13 05:03:22;;;;;;;10.02;6.63;;;;;;;;;;5054081;28;20040;-81
2022/12/13 05:05:48;;;;;;;10.30;6.88;;;;;;;;;;5054017;28;20435;-82
2022/12/13 05:08:13;;;;;;;9.68;7.20;;;;;;;;;;5054672;28;20028;-83
2022/12/13 05:10:39;;;;;;;8.88;6.40;;;;;;;;;;5022687;28;20033;-82
2022/12/13 05:13:04;;;;;;;12.48;7.30;;;;;;;;;;5045276;28;20021;-80
2022/12/13 05:15:30;;;;;;;10.18;6.47;;;;;;;;;;5058611;28;20052;-79
2022/12/13 05:18:02;;;;;;;12.55;8.02;;;;;;;;;;5063554;28;20032;-82
2022/12/13 05:20:28;;;;;;;11.75;8.00;;;;;;;;;;5038287;28;20432;-81
2022/12/13 05:22:56;;;;;;;12.52;7.50;;;;;;;;;;5021374;28;20136;-82
2022/12/13 05:25:22;;;;;;;10.23;7.65;;;;;;;;;;5035565;28;20037;-82
2022/12/13 05:27:48;;;;;;;14.27;9.77;;;;;;;;;;5035533;28;20049;-82
2022/12/13 05:30:14;;;;;;;11.68;8.57;;;;;;;;;;5053804;28;20119;-83
2022/12/13 05:32:39;;;;;;;13.65;9.60;;;;;;;;;;5018828;28;20108;-83
2022/12/13 05:35:05;;;;;;;11.75;9.05;;;;;;;;;;5014634;28;20124;-83
2022/12/13 05:37:31;;;;;;;12.48;9.20;;;;;;;;;;5044784;28;20060;-82
2022/12/13 05:39:56;;;;;;;13.55;9.73;;;;;;;;;;5034437;28;20033;-81
2022/12/13 05:42:21;;;;;;;14.30;9.27;;;;;;;;;;5035224;28;20436;-83
2022/12/13 05:44:47;;;;;;;17.00;10.40;;;;;;;;;;5052864;28;20048;-83
2022/12/13 05:47:13;;;;;;;19.05;11.63;;;;;;;;;;5052819;28;20037;-82
2022/12/13 05:49:38;;;;;;;17.70;11.40;;;;;;;;;;5053288;28;20028;-82
2022/12/13 05:52:04;;;;;;;18.77;11.80;;;;;;;;;;5034534;28;20032;-82
2022/12/13 05:54:29;;;;;;;19.10;11.70;;;;;;;;;;5052655;28;20446;-82
2022/12/13 05:56:55;;;;;;;22.02;12.85;;;;;;;;;;5019045;28;20029;-82
2022/12/13 05:59:21;;;;;;;21.65;13.63;;;;;;;;;;5034850;28;20068;-82
2022/12/13 06:01:46;;;;;;;22.88;14.13;;;;;;;;;;5036188;28;20040;-82
2022/12/13 06:04:12;;;;;;;24.42;14.75;;;;;;;;;;5054866;28;20031;-83
2022/12/13 06:06:37;;;;;;;27.27;16.30;;;;;;;;;;5016166;28;20035;-83
2022/12/13 06:09:03;;;;;;;26.90;16.67;;;;;;;;;;5048112;28;20530;-82
2022/12/13 06:11:28;;;;;;;30.92;17.50;;;;;;;;;;5036050;28;20469;-82
2022/12/13 06:13:54;;;;;;;28.17;16.65;;;;;;;;;;5019419;28;20559;-82
2022/12/13 06:16:19;;;;;;;27.70;16.33;;;;;;;;;;5036545;28;20045;-82
2022/12/13 06:18:45;;;;;;;28.98;16.23;;;;;;;;;;5051955;28;20037;-83
2022/12/13 06:21:10;;;;;;;24.20;14.70;;;;;;;;;;5038615;28;20134;-82
2022/12/13 06:23:36;;;;;;;24.23;15.20;;;;;;;;;;5041196;28;20039;-84
2022/12/13 06:26:05;;;;;;;24.70;14.07;;;;;;;;;;5039457;28;20444;-83
2022/12/13 06:28:31;;;;;;;25.73;14.75;;;;;;;;;;5037782;28;20102;-82
2022/12/13 06:31:01;;;;;;;24.83;15.75;;;;;;;;;;5014245;28;20115;-83
2022/12/13 06:33:27;;;;;;;23.45;13.00;;;;;;;;;;5046015;28;20029;-83
2022/12/13 06:35:54;;;;;;;21.63;13.00;;;;;;;;;;5034228;28;20388;-85
2022/12/13 06:38:20;;;;;;;21.10;12.68;;;;;;;;;;5007651;28;20492;-84
2022/12/13 06:40:46;;;;;;;20.85;12.25;;;;;;;;;;5024640;28;20057;-83
2022/12/13 06:43:11;;;;;;;20.13;12.48;;;;;;;;;;5034050;28;20376;-83
2022/12/13 06:45:38;;;;;;;20.67;13.27;;;;;;;;;;5023214;28;20028;-83
2022/12/13 06:48:03;;;;;;;21.55;13.85;;;;;;;;;;5035191;28;20041;-82
2022/12/13 06:50:29;;;;;;;21.42;12.80;;;;;;;;;;5038895;28;20403;-83
2022/12/13 06:52:54;;;;;;;22.45;13.57;;;;;;;;;;5039597;28;20044;-83
2022/12/13 06:55:20;;;;;;;23.13;13.98;;;;;;;;;;5055851;28;20029;-83
2022/12/13 06:57:45;;;;;;;22.23;14.73;;;;;;;;;;5045226;28;20039;-84
2022/12/13 07:00:11;;;;;;;20.38;13.52;;;;;;;;;;5021217;28;20032;-84
2022/12/13 07:02:37;;;;;;;22.35;13.18;;;;;;;;;;5038027;28;20036;-82
2022/12/13 07:05:02;;;;;;;26.13;14.85;;;;;;;;;;5021449;28;20441;-83
2022/12/13 07:07:28;;;;;;;22.45;14.07;;;;;;;;;;5020236;28;20041;-84
2022/12/13 07:09:54;;;;;;;22.13;13.55;;;;;;;;;;5037856;28;20033;-83
2022/12/13 07:12:19;;;;;;;22.83;14.00;;;;;;;;;;5020865;28;20025;-83
2022/12/13 07:14:45;;;;;;;25.80;15.82;;;;;;;;;;5004834;28;20048;-82
2022/12/13 07:17:11;;;;;;;22.77;15.00;;;;;;;;;;5033661;28;20037;-83
2022/12/13 07:19:36;;;;;;;24.35;15.60;;;;;;;;;;5056485;28;20472;-84
2022/12/13 07:22:04;;;;;;;24.52;14.98;;;;;;;;;;5024596;28;20171;-82
2022/12/13 07:24:30;;;;;;;25.92;15.35;;;;;;;;;;5021463;28;20037;-83
2022/12/13 07:26:55;;;;;;;25.35;15.88;;;;;;;;;;5037693;28;20039;-83
2022/12/13 07:29:21;;;;;;;26.52;16.33;;;;;;;;;;5004866;28;20119;-82
2022/12/13 07:31:46;;;;;;;21.45;14.40;;;;;;;;;;5005585;28;20029;-83
2022/12/13 07:34:12;;;;;;;28.70;16.08;;;;;;;;;;5017913;28;20033;-82
2022/12/13 07:36:37;;;;;;;24.88;16.15;;;;;;;;;;5036809;28;20044;-83
2022/12/13 07:39:03;;;;;;;24.60;15.32;;;;;;;;;;5038413;28;20036;-83
2022/12/13 07:41:28;;;;;;;22.90;14.95;;;;;;;;;;5037486;28;20131;-82
2022/12/13 07:43:54;;;;;;;21.00;13.57;;;;;;;;;;5037505;28;20385;-82
2022/12/13 07:46:19;;;;;;;18.98;13.27;;;;;;;;;;5054622;28;20500;-84
2022/12/13 07:48:45;;;;;;;18.73;12.02;;;;;;;;;;5054373;28;20033;-82
2022/12/13 07:51:11;;;;;;;18.05;12.32;;;;;;;;;;5057192;28;20032;-82
2022/12/13 07:53:36;;;;;;;;;;;;;;;;;;5037325;28;20450;-82
2022/12/13 07:56:09;;;;;;;16.40;10.75;;;;;;;;;;5046244;28;19916;-83
2022/12/13 07:58:36;;;;;;;17.77;12.43;;;;;;;;;;5023471;28;20084;-83
2022/12/13 08:01:05;;;;;;;19.77;12.80;;;;;;;;;;5007730;28;20029;-82
2022/12/13 08:03:30;;;;;;;18.10;11.90;;;;;;;;;;5054444;28;20037;-82
2022/12/13 08:05:59;;;;;;;17.58;11.98;;;;;;;;;;5054504;28;20036;-82
2022/12/13 08:08:53;;;;;;;15.93;12.05;;;;;;;;;;5067331;28;20044;-83
2022/12/13 08:11:19;;;;;;;12.32;9.52;;;;;;;;;;5024101;28;20511;-82
2022/12/13 08:13:45;;;;;;;13.35;9.95;;;;;;;;;;5036997;28;20044;-83
2022/12/13 08:16:10;;;;;;;11.90;8.93;;;;;;;;;;5036532;28;20067;-84
2022/12/13 08:18:38;;;;;;;14.00;9.50;;;;;;;;;;5038367;28;20564;-83
2022/12/13 08:21:04;;;;;;;13.43;10.18;;;;;;;;;;5036306;28;20041;-82
2022/12/13 08:23:29;;;;;;;;;;;;;;;;;;5036802;28;20032;-83
2022/12/13 08:25:55;;;;;;;15.40;10.52;;;;;;;;;;5053840;28;20387;-82
2022/12/13 08:28:21;;;;;;;14.80;10.27;;;;;;;;;;5036185;28;20037;-83
2022/12/13 08:30:46;;;;;;;13.63;9.82;;;;;;;;;;5055599;28;20037;-83
2022/12/13 08:33:12;;;;;;;11.80;8.60;;;;;;;;;;5035842;28;20104;-83
2022/12/13 08:35:37;;;;;;;12.38;9.48;;;;;;;;;;5053824;28;20033;-82
2022/12/13 08:38:03;;;;;;;11.82;9.13;;;;;;;;;;5036235;28;20462;-81
2022/12/13 08:40:29;;;;;;;13.85;9.60;;;;;;;;;;5036103;28;20040;-83
2022/12/13 08:42:55;;;;;;;12.68;9.85;;;;;;;;;;5055505;28;20025;-83
2022/12/13 08:45:22;;;;;;;13.27;9.95;;;;;;;;;;5021230;28;20037;-83
2022/12/13 08:47:48;;;;;;;11.77;9.10;;;;;;;;;;5060931;28;20035;-83
2022/12/13 08:50:14;;;;;;;12.98;10.10;;;;;;;;;;5053414;28;20037;-83
2022/12/13 08:52:39;;;;;;;12.50;9.20;;;;;;;;;;5053531;28;20033;-82
2022/12/13 08:55:06;;;;;;;12.82;9.27;;;;;;;;;;5035728;28;20032;-83
2022/12/13 08:57:34;;;;;;;12.13;9.10;;;;;;;;;;5019260;28;20025;-82
2022/12/13 09:00:00;;;;;;;13.60;9.27;;;;;;;;;;5020107;28;20037;-82
2022/12/13 09:02:28;;;;;;;14.38;9.57;;;;;;;;;;5036417;28;20028;-83
2022/12/13 09:04:54;;;;;;;13.48;10.43;;;;;;;;;;5055308;28;20601;-84
2022/12/13 09:07:19;;;;;;;13.40;9.85;;;;;;;;;;5053838;28;20036;-82
2022/12/13 09:09:45;;;;;;;12.88;9.02;;;;;;;;;;5035855;28;20037;-83
2022/12/13 09:12:10;;;;;;;14.20;10.32;;;;;;;;;;5035320;28;20466;-83
2022/12/13 09:14:36;;;;;;;14.15;10.77;;;;;;;;;;5018441;28;20439;-83
2022/12/13 09:17:01;;;;;;;15.35;11.38;;;;;;;;;;5052690;28;20035;-85
2022/12/13 09:19:27;;;;;;;14.50;10.73;;;;;;;;;;5052779;28;20037;-83
2022/12/13 09:21:52;;;;;;;15.48;10.73;;;;;;;;;;5061193;28;20029;-82
2022/12/13 09:24:18;;;;;;;15.00;10.90;;;;;;;;;;5041837;28;20029;-82
2022/12/13 09:26:43;;;;;;;13.93;10.45;;;;;;;;;;5061595;28;20024;-82
2022/12/13 09:29:09;;;;;;;13.32;10.05;;;;;;;;;;5043119;28;20037;-82
2022/12/13 09:31:36;;;;;;;11.43;8.65;;;;;;;;;;5035250;28;20048;-82
2022/12/13 09:34:02;;;;;;;13.07;9.75;;;;;;;;;;5035811;28;20040;-82
2022/12/13 09:36:28;;;;;;;16.30;10.88;;;;;;;;;;5031754;28;20016;-81
2022/12/13 09:38:54;;;;;;;14.15;10.38;;;;;;;;;;5053161;28;20116;-82
2022/12/13 09:41:29;;;;;;;14.07;9.98;;;;;;;;;;5034804;28;20033;-82
2022/12/13 09:43:56;;;;;;;13.68;9.27;;;;;;;;;;5053192;28;20552;-83
2022/12/13 09:46:31;;;;;;;13.38;9.23;;;;;;;;;;5034649;28;20456;-81
2022/12/13 09:48:57;;;;;;;13.03;9.77;;;;;;;;;;5034277;28;20045;-84
2022/12/13 09:51:23;;;;;;;16.00;10.05;;;;;;;;;;5036593;28;20800;-81
2022/12/13 09:53:48;;;;;;;12.30;8.95;;;;;;;;;;5015269;28;20032;-82
2022/12/13 09:56:14;;;;;;;13.85;9.95;;;;;;;;;;5034521;28;20480;-82
2022/12/13 09:58:40;;;;;;;13.75;9.63;;;;;;;;;;5058556;28;20064;-81
2022/12/13 10:01:06;;;;;;;15.90;10.00;;;;;;;;;;5047873;28;20040;-84
2022/12/13 10:03:31;;;;;;;15.20;10.43;;;;;;;;;;5025279;28;20115;-82
2022/12/13 10:05:57;;;;;;;16.85;11.07;;;;;;;;;;5031547;28;20028;-83
2022/12/13 10:08:27;;;;;;;16.52;11.27;;;;;;;;;;5023421;28;20111;-83
2022/12/13 10:10:53;;;;;;;16.33;10.73;;;;;;;;;;5010891;28;20036;-83
2022/12/13 10:13:26;;;;;;;16.75;11.27;;;;;;;;;;5028212;28;20044;-82
2022/12/13 10:15:53;;;;;;;15.25;10.55;;;;;;;;;;5030594;28;20434;-81
2022/12/13 10:18:30;;;;;;;15.63;10.80;;;;;;;;;;5018883;28;20072;-82
2022/12/13 10:20:56;;;;;;;14.65;10.45;;;;;;;;;;5046141;28;20032;-83
2022/12/13 10:23:21;;;;;;;14.65;10.43;;;;;;;;;;5046683;28;20090;-81
2022/12/13 10:25:53;;;;;;;16.77;10.80;;;;;;;;;;5041452;28;20037;-82
2022/12/13 10:28:23;;;;;;;16.98;10.77;;;;;;;;;;5048714;28;20491;-82
2022/12/13 10:30:48;;;;;;;16.65;10.60;;;;;;;;;;5023346;28;20037;-82
2022/12/13 10:33:18;;;;;;;15.85;10.27;;;;;;;;;;5040708;28;20396;-85
2022/12/13 10:35:45;;;;;;;15.05;10.50;;;;;;;;;;5059147;28;20037;-83
2022/12/13 10:38:13;;;;;;;16.10;11.00;;;;;;;;;;5041277;28;20030;-83
2022/12/13 10:40:40;;;;;;;15.05;9.48;;;;;;;;;;5059869;28;20028;-83
2022/12/13 10:43:16;;;;;;;15.30;10.50;;;;;;;;;;5025424;28;20044;-83
2022/12/13 10:45:42;;;;;;;16.00;10.18;;;;;;;;;;5041552;28;20036;-83
2022/12/13 10:48:07;;;;;;;;;;;;;;;;;;5042053;28;20032;-83
2022/12/13 10:50:33;;;;;;;15.90;10.70;;;;;;;;;;5064103;28;19928;-82
2022/12/13 10:52:59;;;;;;;17.85;10.75;;;;;;;;;;5058468;28;20160;-83
2022/12/13 10:55:34;;;;;;;14.40;9.65;;;;;;;;;;5034247;28;20056;-83
2022/12/13 10:58:05;;;;;;;15.07;9.77;;;;;;;;;;5049187;28;20040;-83
2022/12/13 11:00:37;;;;;;;18.20;11.57;;;;;;;;;;5041035;28;20420;-83
2022/12/13 11:03:03;;;;;;;18.00;11.20;;;;;;;;;;5058762;28;20220;-83
2022/12/13 11:05:31;;;;;;;15.98;10.15;;;;;;;;;;5041357;28;20064;-82
2022/12/13 11:08:10;;;;;;;18.98;11.23;;;;;;;;;;5058156;28;20033;-82
2022/12/13 11:10:36;;;;;;;17.05;11.20;;;;;;;;;;5035127;28;20040;-82
2022/12/13 11:13:02;;;;;;;17.45;11.23;;;;;;;;;;5033739;28;20025;-82
2022/12/13 11:15:31;;;;;;;19.65;11.63;;;;;;;;;;5018859;28;20102;-82
2022/12/13 11:17:57;;;;;;;17.00;10.93;;;;;;;;;;5067505;28;20047;-82
2022/12/13 11:20:24;;;;;;;17.33;10.43;;;;;;;;;;5043347;28;20041;-81
2022/12/13 11:22:49;;;;;;;18.10;11.43;;;;;;;;;;5048171;28;20020;-83
2022/12/13 11:25:18;;;;;;;16.23;9.90;;;;;;;;;;5068290;28;20136;-83
2022/12/13 11:27:47;;;;;;;17.08;10.45;;;;;;;;;;5041246;28;20047;-84
2022/12/13 11:30:38;;;;;;;17.80;11.35;;;;;;;;;;5058738;28;20404;-83
2022/12/13 11:33:04;;;;;;;16.58;10.98;;;;;;;;;;5034939;28;20074;-83
2022/12/13 11:35:47;;;;;;;18.40;11.38;;;;;;;;;;5037062;28;20045;-82
2022/12/13 11:38:25;;;;;;;16.58;10.32;;;;;;;;;;5039183;28;20550;-82
2022/12/13 11:40:58;;;;;;;15.85;9.93;;;;;;;;;;5072271;28;20119;-83
2022/12/13 11:43:26;;;;;;;18.08;10.77;;;;;;;;;;5037883;28;20032;-83
2022/12/13 11:45:54;;;;;;;17.60;10.70;;;;;;;;;;5036412;28;20523;-82
2022/12/13 11:48:23;;;;;;;19.40;11.65;;;;;;;;;;5037274;28;20179;-81
2022/12/13 11:50:49;;;;;;;17.48;11.18;;;;;;;;;;5054248;28;20426;-83
2022/12/13 11:53:17;;;;;;;18.70;11.27;;;;;;;;;;5018412;28;20095;-83
2022/12/13 11:55:49;;;;;;;18.02;11.52;;;;;;;;;;5060758;28;20021;-83
2022/12/13 11:58:29;;;;;;;19.45;11.88;;;;;;;;;;5054180;28;20111;-84
2022/12/13 12:00:55;;;;;;;18.20;10.95;;;;;;;;;;5019773;28;20036;-83
2022/12/13 12:03:47;;;;;;;18.23;11.05;;;;;;;;;;5036351;28;20070;-82
2022/12/13 12:06:15;;;;;;;15.68;9.77;;;;;;;;;;5039557;28;20086;-81
2022/12/13 12:08:45;;;;;;;16.85;11.05;;;;;;;;;;5064066;28;20479;-83
2022/12/13 12:11:13;;;;;;;16.33;10.52;;;;;;;;;;5043833;28;20029;-82
2022/12/13 12:13:50;;;;;;;16.10;9.75;;;;;;;;;;5048714;28;20020;-83
2022/12/13 12:16:24;;;;;;;18.83;10.88;;;;;;;;;;5027568;28;20420;-82
2022/12/13 12:18:50;;;;;;;16.88;10.98;;;;;;;;;;5034918;28;20025;-82
2022/12/13 12:21:16;;;;;;;14.18;9.05;;;;;;;;;;5038904;28;20102;-82
2022/12/13 12:23:44;;;;;;;15.63;9.85;;;;;;;;;;5036979;28;20127;-83
2022/12/13 12:26:11;;;;;;;19.75;11.48;;;;;;;;;;5061842;28;20037;-83
2022/12/13 12:28:58;;;;;;;19.50;11.07;;;;;;;;;;5047338;28;20044;-82
2022/12/13 12:31:35;;;;;;;17.13;10.35;;;;;;;;;;5045893;28;20036;-82
2022/12/13 12:34:16;;;;;;;17.67;10.73;;;;;;;;;;5050867;28;20063;-84
2022/12/13 12:36:45;;;;;;;19.73;11.05;;;;;;;;;;5048412;28;20028;-83
2022/12/13 12:39:29;;;;;;;20.50;12.00;;;;;;;;;;5040294;28;20435;-82
2022/12/13 12:41:56;;;;;;;17.10;10.93;;;;;;;;;;5059032;28;20037;-83
2022/12/13 12:44:24;;;;;;;17.85;11.13;;;;;;;;;;5057135;28;20553;-81
2022/12/13 12:46:53;;;;;;;18.00;10.27;;;;;;;;;;5060872;28;20102;-83
2022/12/13 12:49:19;;;;;;;19.13;10.95;;;;;;;;;;5057232;28;20091;-82
2022/12/13 12:51:54;;;;;;;18.50;11.45;;;;;;;;;;5036672;28;20045;-83
2022/12/13 12:54:33;;;;;;;18.85;11.13;;;;;;;;;;5037412;28;20116;-82
2022/12/13 12:57:08;;;;;;;16.95;9.60;;;;;;;;;;5019823;28;20524;-82
2022/12/13 12:59:39;;;;;;;20.13;10.23;;;;;;;;;;5054377;28;20029;-82
2022/12/13 13:02:14;;;;;;;19.00;10.82;;;;;;;;;;5020863;28;20404;-82
2022/12/13 13:04:41;;;;;;;19.38;10.85;;;;;;;;;;5044970;28;20057;-82
2022/12/13 13:07:14;;;;;;;19.65;10.90;;;;;;;;;;5045606;28;20567;-81
2022/12/13 13:09:40;;;;;;;17.52;10.48;;;;;;;;;;5018528;28;20037;-82
2022/12/13 13:12:06;;;;;;;16.83;11.20;;;;;;;;;;5035535;28;20032;-82
2022/12/13 13:14:32;;;;;;;17.55;10.35;;;;;;;;;;5034992;28;20549;-83
2022/12/13 13:16:58;;;;;;;18.77;10.80;;;;;;;;;;5035503;28;20083;-84
2022/12/13 13:19:32;;;;;;;18.30;10.38;;;;;;;;;;5023150;28;20058;-82
2022/12/13 13:21:58;;;;;;;23.45;11.90;;;;;;;;;;5053609;28;20037;-83
2022/12/13 13:24:27;;;;;;;19.50;11.38;;;;;;;;;;5020281;28;20101;-83
2022/12/13 13:26:53;;;;;;;21.67;11.98;;;;;;;;;;5037259;28;20087;-82
2022/12/13 13:29:25;;;;;;;20.35;11.90;;;;;;;;;;5022906;28;20031;-84
2022/12/13 13:32:02;;;;;;;21.08;11.90;;;;;;;;;;5014779;28;20033;-82
2022/12/13 13:34:40;;;;;;;19.73;11.57;;;;;;;;;;5023382;28;20496;-82
2022/12/13 13:37:19;;;;;;;18.30;11.88;;;;;;;;;;5017871;28;20086;-82
2022/12/13 13:39:56;;;;;;;20.75;11.80;;;;;;;;;;5052629;28;20064;-83
2022/12/13 13:42:23;;;;;;;21.38;12.63;;;;;;;;;;5037815;28;20074;-82
2022/12/13 13:44:48;;;;;;;20.70;12.68;;;;;;;;;;5037845;28;20310;-83
2022/12/13 13:47:21;;;;;;;20.83;12.10;;;;;;;;;;5064721;28;20036;-85
2022/12/13 13:49:52;;;;;;;21.15;12.48;;;;;;;;;;5052250;28;20040;-82
2022/12/13 13:52:18;;;;;;;24.05;12.55;;;;;;;;;;5034721;28;20044;-82
2022/12/13 13:55:07;;;;;;;23.33;13.10;;;;;;;;;;5026614;28;20079;-84
2022/12/13 13:57:36;;;;;;;20.13;11.73;;;;;;;;;;5027487;28;20496;-83
2022/12/13 14:00:05;;;;;;;20.50;11.55;;;;;;;;;;5036132;28;20541;-83
2022/12/13 14:02:44;;;;;;;20.50;11.88;;;;;;;;;;5053300;28;20063;-83
2022/12/13 14:05:22;;;;;;;20.77;11.30;;;;;;;;;;5053867;28;20400;-83
2022/12/13 14:07:52;;;;;;;21.17;11.80;;;;;;;;;;5036986;28;20047;-83
2022/12/13 14:10:18;;;;;;;19.40;11.45;;;;;;;;;;5018226;28;20403;-82
2022/12/13 14:12:51;;;;;;;19.17;11.73;;;;;;;;;;5021105;28;20484;-82
2022/12/13 14:15:35;;;;;;;17.70;11.02;;;;;;;;;;5001960;28;20463;-82
2022/12/13 14:18:01;;;;;;;18.30;10.95;;;;;;;;;;5018261;28;20392;-82
2022/12/13 14:20:30;;;;;;;23.58;12.45;;;;;;;;;;5018032;28;20029;-82
2022/12/13 14:23:08;;;;;;;18.63;10.93;;;;;;;;;;5037918;28;20056;-82
2022/12/13 14:25:49;;;;;;;20.55;11.85;;;;;;;;;;5005668;28;20040;-81
2022/12/13 14:28:21;;;;;;;20.23;12.18;;;;;;;;;;5033594;28;20044;-82
2022/12/13 14:30:46;;;;;;;19.02;11.57;;;;;;;;;;5051637;28;20438;-84
2022/12/13 14:33:18;;;;;;;19.52;11.35;;;;;;;;;;5033861;28;20115;-83
2022/12/13 14:35:49;;;;;;;22.95;12.02;;;;;;;;;;5033762;28;20052;-83
2022/12/13 14:38:25;;;;;;;21.55;12.30;;;;;;;;;;5051767;28;20504;-83
2022/12/13 14:40:51;;;;;;;21.58;12.38;;;;;;;;;;5051956;28;20036;-83